Terminal Aerodrome Forecast
Issued by NWS

Home | Current Version | Previous Version | Text Only | Print | Product List | Glossary Off
Versions: 1 2 3 4 5 6 7 8 9 10 11 12 13 14 15 16

000
FTUS43 KMPX 242326
TAFRWF
TAF
KRWF 242326Z 2500/2524 14011KT P6SM SCT035
     FM250600 15013KT P6SM VCSH SCT035 BKN090
     FM250900 15014KT P6SM VCTS BKN050CB
     FM251200 16016G20KT P6SM SCT040 BKN150
     FM251500 16014G22KT P6SM SCT020 BKN035=

USA.gov is the U.S. government's official web portal to all federal, state and local government web resources and services.